Time;durP1;ratioP1;P1;durP2;ratioP2;P2;SDS_P1;SDS_P2;PMS_P1;PMS_P2;Temp;Humidity;BMP_temperature;BMP_pressure;BME280_temperature;BME280_humidity;BME280_pressure;Samples;Min_cycle;Max_cycle;Signal;HPM_P1;HPM_P2
2023/04/18 00:01:01;;;;;;;1999.90;999.90;;;;;;;8.10;100.00;97684.06;5114121;28;20024;-75
2023/04/18 00:03:28;;;;;;;1999.90;999.90;;;;;;;8.11;100.00;97682.16;5112626;28;20023;-75
2023/04/18 00:05:54;;;;;;;1999.90;999.90;;;;;;;7.99;100.00;97675.16;5113684;28;20433;-77
2023/04/18 00:08:19;;;;;;;1999.90;999.90;;;;;;;7.86;100.00;97664.91;5113841;28;20050;-76
2023/04/18 00:10:45;;;;;;;1999.90;999.90;;;;;;;7.90;100.00;97676.06;5114199;28;20511;-75
2023/04/18 00:13:10;;;;;;;1999.90;999.90;;;;;;;7.95;100.00;97676.03;5114539;28;20035;-75
2023/04/18 00:15:36;;;;;;;1999.90;999.90;;;;;;;7.92;100.00;97671.97;5115189;28;20085;-77
2023/04/18 00:18:04;;;;;;;1999.90;999.90;;;;;;;7.95;100.00;97673.31;5116952;28;20024;-79
2023/04/18 00:20:31;;;;;;;1999.90;999.90;;;;;;;7.84;100.00;97671.75;5120101;28;20043;-78
2023/04/18 00:22:59;;;;;;;1999.90;999.90;;;;;;;7.70;100.00;97657.19;5114525;28;20047;-76
2023/04/18 00:25:24;;;;;;;1999.90;999.90;;;;;;;7.78;100.00;97671.00;5112798;28;20070;-76
2023/04/18 00:27:50;;;;;;;1999.90;999.90;;;;;;;7.74;100.00;97655.50;5112678;28;20442;-75
2023/04/18 00:30:15;;;;;;;1999.90;999.90;;;;;;;7.82;100.00;97668.50;5112983;28;20031;-75
2023/04/18 00:32:40;;;;;;;1999.90;999.90;;;;;;;7.82;100.00;97673.97;5094527;28;20015;-75
2023/04/18 00:35:06;;;;;;;1999.90;999.90;;;;;;;7.92;100.00;97673.88;5112925;28;20054;-76
2023/04/18 00:37:31;;;;;;;1999.90;999.90;;;;;;;7.95;100.00;97659.69;5114117;28;20031;-75
2023/04/18 00:39:57;;;;;;;1999.90;999.90;;;;;;;8.02;100.00;97673.78;5114533;28;20027;-79
2023/04/18 00:42:24;;;;;;;1999.90;999.90;;;;;;;8.08;100.00;97665.28;5114502;28;20015;-75
2023/04/18 00:44:49;;;;;;;1999.90;999.90;;;;;;;8.08;100.00;97662.56;5114859;28;20027;-75
2023/04/18 00:47:16;;;;;;;1999.90;999.90;;;;;;;8.16;100.00;97663.03;5112133;28;20039;-76
2023/04/18 00:49:45;;;;;;;1999.90;999.90;;;;;;;8.11;100.00;97668.53;5112304;28;20030;-75
2023/04/18 00:52:14;;;;;;;1999.90;999.90;;;;;;;7.83;100.00;97664.72;5111934;28;20034;-76
2023/04/18 00:54:40;;;;;;;1999.90;999.90;;;;;;;7.85;100.00;97670.66;5111936;28;20027;-75
2023/04/18 00:57:06;;;;;;;1999.90;999.90;;;;;;;7.88;100.00;97667.38;5093890;28;20020;-75
2023/04/18 00:59:33;;;;;;;1999.90;999.90;;;;;;;7.93;100.00;97667.31;5112482;28;20491;-76
2023/04/18 01:01:59;;;;;;;1999.90;999.90;;;;;;;7.92;100.00;97671.97;5112517;28;20023;-77
2023/04/18 01:04:24;;;;;;;1999.90;999.90;;;;;;;7.80;100.00;97659.84;5112628;28;20035;-74
2023/04/18 01:06:50;;;;;;;1999.90;999.90;;;;;;;7.76;100.00;97675.09;5113329;28;20024;-75
2023/04/18 01:09:15;;;;;;;1999.90;999.90;;;;;;;7.82;100.00;97672.06;5115004;28;20077;-79
2023/04/18 01:11:41;;;;;;;1999.90;999.90;;;;;;;7.85;100.00;97665.22;5093906;28;20024;-77
2023/04/18 01:14:07;;;;;;;1999.90;999.90;;;;;;;7.86;100.00;97658.69;5111551;28;20031;-76
2023/04/18 01:16:33;;;;;;;1999.90;999.90;;;;;;;7.87;100.00;97658.38;5111974;28;20483;-76
2023/04/18 01:19:00;;;;;;;1999.90;999.90;;;;;;;7.81;100.00;97662.25;5093567;28;20055;-76
2023/04/18 01:21:30;;;;;;;1999.90;999.90;;;;;;;7.67;100.00;97661.28;5111511;28;20382;-77
2023/04/18 01:24:00;;;;;;;1999.90;999.90;;;;;;;7.79;100.00;97661.75;5111591;28;20400;-77
2023/04/18 01:26:26;;;;;;;1999.90;999.90;;;;;;;7.75;100.00;97651.69;5111263;28;20027;-78
2023/04/18 01:28:51;;;;;;;1999.90;999.90;;;;;;;7.71;100.00;97647.91;5127665;27;20386;-74
2023/04/18 01:31:16;;;;;;;1999.90;999.90;;;;;;;7.76;100.00;97650.59;5131578;28;20023;-77
2023/04/18 01:33:42;;;;;;;1999.90;999.90;;;;;;;7.59;100.00;97637.38;5131451;28;20058;-75
2023/04/18 01:36:07;;;;;;;1999.90;999.90;;;;;;;7.60;100.00;97643.66;5131611;28;20027;-78
2023/04/18 01:38:32;;;;;;;1999.90;999.90;;;;;;;7.58;100.00;97648.56;5129964;28;20432;-76
2023/04/18 01:40:58;;;;;;;1999.90;999.90;;;;;;;7.65;100.00;97643.59;5130670;28;20413;-76
2023/04/18 01:43:23;;;;;;;1999.90;999.90;;;;;;;7.53;100.00;97639.34;5112869;28;20027;-75
2023/04/18 01:45:48;;;;;;;1999.90;999.90;;;;;;;7.45;100.00;97626.34;5131924;27;20416;-75
2023/04/18 01:48:14;;;;;;;1999.90;999.90;;;;;;;7.56;100.00;97637.94;5131171;27;20027;-75
2023/04/18 01:50:39;;;;;;;1999.90;999.90;;;;;;;7.68;100.00;97638.41;5131382;27;20023;-76
2023/04/18 01:53:04;;;;;;;1999.90;999.90;;;;;;;7.60;100.00;97630.84;5131343;28;20044;-78
2023/04/18 01:55:30;;;;;;;1999.90;999.90;;;;;;;7.52;100.00;97651.31;5131400;27;20023;-74
2023/04/18 01:57:55;;;;;;;1999.90;999.90;;;;;;;7.58;100.00;97641.19;5131456;27;20390;-76
2023/04/18 02:00:20;;;;;;;1999.90;999.90;;;;;;;7.71;100.00;97645.19;5113368;28;20023;-76
2023/04/18 02:02:46;;;;;;;1999.90;999.90;;;;;;;7.76;100.00;97642.44;5113381;28;20031;-76
2023/04/18 02:05:11;;;;;;;1999.90;999.90;;;;;;;7.84;100.00;97648.06;5132581;27;20054;-76
2023/04/18 02:07:36;;;;;;;1999.90;999.90;;;;;;;7.77;100.00;97650.31;5132793;28;20023;-82
2023/04/18 02:10:02;;;;;;;1999.90;999.90;;;;;;;7.79;100.00;97641.88;5131690;28;20126;-76
2023/04/18 02:12:27;;;;;;;1999.90;999.90;;;;;;;7.86;100.00;97639.63;5132050;28;20468;-76
2023/04/18 02:14:53;;;;;;;1999.90;999.90;;;;;;;7.90;100.00;97637.94;5132036;28;20023;-78
2023/04/18 02:17:20;;;;;;;1999.90;999.90;;;;;;;7.81;100.00;97651.38;5131953;27;20030;-76
2023/04/18 02:19:46;;;;;;;1999.90;999.90;;;;;;;7.81;100.00;97635.03;5132047;27;20030;-76
2023/04/18 02:22:12;;;;;;;1999.90;999.90;;;;;;;7.91;100.00;97651.28;5132566;28;20107;-75
2023/04/18 02:24:37;;;;;;;1999.90;999.90;;;;;;;7.87;100.00;97643.97;5113503;28;20118;-75
2023/04/18 02:27:02;;;;;;;1999.90;999.90;;;;;;;8.01;100.00;97644.94;5135789;27;20023;-74
2023/04/18 02:29:29;;;;;;;1999.90;999.90;;;;;;;8.01;100.00;97639.50;5139943;27;20019;-77
2023/04/18 02:31:55;;;;;;;1999.90;999.90;;;;;;;7.83;100.00;97638.25;5131797;27;20035;-74
2023/04/18 02:34:20;;;;;;;1999.90;999.90;;;;;;;7.97;100.00;97636.53;5117793;28;20064;-75
2023/04/18 02:36:45;;;;;;;1999.90;999.90;;;;;;;8.16;100.00;97647.50;5121059;28;20029;-78
2023/04/18 02:39:11;;;;;;;1999.90;999.90;;;;;;;8.22;100.00;97643.63;5114407;28;20038;-77
2023/04/18 02:41:38;;;;;;;1999.90;999.90;;;;;;;8.28;100.00;97645.25;5114700;28;20020;-76
2023/04/18 02:44:05;;;;;;;1999.90;999.90;;;;;;;8.36;100.00;97657.44;5114436;27;20027;-74
2023/04/18 02:46:31;;;;;;;1999.90;999.90;;;;;;;8.28;100.00;97652.59;5125482;27;20637;-75
2023/04/18 02:48:56;;;;;;;1999.90;999.90;;;;;;;8.29;100.00;97652.31;5113964;28;20034;-76
2023/04/18 02:51:21;;;;;;;1999.90;999.90;;;;;;;8.33;100.00;97652.56;5125601;27;20030;-75
2023/04/18 02:53:47;;;;;;;1999.90;999.90;;;;;;;8.37;100.00;97650.88;5134152;27;20023;-76
2023/04/18 02:56:15;;;;;;;1999.90;999.90;;;;;;;8.22;100.00;97659.97;5133911;27;20015;-75
2023/04/18 02:58:41;;;;;;;1999.90;999.90;;;;;;;8.13;100.00;97639.91;5115357;27;20386;-76
2023/04/18 03:01:06;;;;;;;1999.90;999.90;;;;;;;8.19;100.00;97649.66;5115036;27;20034;-76
2023/04/18 03:03:32;;;;;;;1999.90;999.90;;;;;;;8.23;100.00;97647.19;5121334;27;20085;-77
2023/04/18 03:05:57;;;;;;;1999.90;999.90;;;;;;;8.29;100.00;97652.31;5112953;28;20027;-76
2023/04/18 03:08:22;;;;;;;1999.90;999.90;;;;;;;8.35;100.00;97655.81;5112969;28;20475;-76
2023/04/18 03:10:48;;;;;;;1999.90;999.90;;;;;;;8.30;100.00;97655.88;5112848;28;20131;-75
2023/04/18 03:13:14;;;;;;;1999.90;999.90;;;;;;;8.27;100.00;97649.03;5113015;28;20051;-75
2023/04/18 03:15:39;;;;;;;1999.90;999.90;;;;;;;8.30;100.00;97664.81;5113364;28;20027;-77
2023/04/18 03:18:05;;;;;;;1999.90;999.90;;;;;;;8.17;100.00;97646.41;5128516;27;20103;-75
2023/04/18 03:20:30;;;;;;;1999.90;999.90;;;;;;;8.21;100.00;97661.06;5112596;28;20019;-75
2023/04/18 03:22:55;;;;;;;1999.90;999.90;;;;;;;8.26;100.00;97652.06;5094467;28;20024;-75
2023/04/18 03:25:20;;;;;;;1999.90;999.90;;;;;;;8.26;100.00;97652.06;5113333;28;20063;-76
2023/04/18 03:27:46;;;;;;;1999.90;999.90;;;;;;;8.26;100.00;97650.16;5113722;28;20031;-74
2023/04/18 03:30:12;;;;;;;1999.90;999.90;;;;;;;8.29;100.00;97646.88;5112955;28;20039;-75
2023/04/18 03:32:37;;;;;;;1999.90;999.90;;;;;;;8.43;100.00;97647.81;5112892;28;20028;-76
2023/04/18 03:35:03;;;;;;;1999.90;999.90;;;;;;;8.53;100.00;97647.69;5112819;28;20034;-74
2023/04/18 03:37:28;;;;;;;1999.90;999.90;;;;;;;8.55;100.00;97656.38;5112268;28;20407;-76
2023/04/18 03:39:54;;;;;;;1999.90;999.90;;;;;;;8.37;100.00;97648.97;5123289;27;20019;-76
2023/04/18 03:42:19;;;;;;;1999.90;999.90;;;;;;;8.34;100.00;97637.81;5133051;27;20364;-75
2023/04/18 03:44:44;;;;;;;1999.90;999.90;;;;;;;8.41;100.00;97647.28;5133040;27;20097;-76
2023/04/18 03:47:10;;;;;;;1999.90;999.90;;;;;;;8.37;100.00;97650.88;5133155;27;20045;-76
2023/04/18 03:49:35;;;;;;;1999.90;999.90;;;;;;;8.35;100.00;97643.00;5137845;27;20027;-74
2023/04/18 03:52:00;;;;;;;1999.90;999.90;;;;;;;8.36;100.00;97644.63;5134915;27;20031;-73
2023/04/18 03:54:26;;;;;;;1999.90;999.90;;;;;;;8.39;100.00;97654.94;5115234;27;20019;-76
2023/04/18 03:56:51;;;;;;;1999.90;999.90;;;;;;;8.30;100.00;97648.47;5134495;27;20029;-75
2023/04/18 03:59:18;;;;;;;1999.90;999.90;;;;;;;8.47;100.00;97659.75;5134158;27;20011;-76
2023/04/18 04:01:44;;;;;;;1999.90;999.90;;;;;;;8.55;100.00;97667.28;5135447;27;20027;-84
2023/04/18 04:04:11;;;;;;;1999.90;999.90;;;;;;;8.47;100.00;97656.22;5134105;27;20035;-77
2023/04/18 04:06:36;;;;;;;1999.90;999.90;;;;;;;8.47;100.00;97667.94;5132519;27;20475;-75
2023/04/18 04:09:02;;;;;;;1999.90;999.90;;;;;;;8.48;100.00;97672.28;5132462;27;20096;-75
2023/04/18 04:11:28;;;;;;;1999.90;999.90;;;;;;;8.36;100.00;97677.31;5132733;27;20028;-76
2023/04/18 04:13:53;;;;;;;1999.90;999.90;;;;;;;8.33;100.00;97680.59;5132620;27;20031;-75
2023/04/18 04:16:18;;;;;;;1999.90;999.90;;;;;;;8.38;100.00;97675.13;5134758;27;20521;-76
2023/04/18 04:18:44;;;;;;;1999.90;999.90;;;;;;;8.41;100.00;97677.25;5139553;27;20031;-75
2023/04/18 04:21:09;;;;;;;1999.90;999.90;;;;;;;8.41;100.00;97680.00;5132588;27;20067;-75
2023/04/18 04:23:34;;;;;;;1999.90;999.90;;;;;;;8.38;100.00;97682.47;5132829;27;20027;-77
2023/04/18 04:26:03;;;;;;;1999.90;999.90;;;;;;;8.54;100.00;97690.22;5132791;27;20101;-75
2023/04/18 04:28:29;;;;;;;1999.90;999.90;;;;;;;8.43;100.00;97687.88;5132801;27;20023;-75
2023/04/18 04:30:55;;;;;;;1999.90;999.90;;;;;;;8.36;100.00;97681.97;5132401;27;20031;-76
2023/04/18 04:33:27;;;;;;;1999.90;999.90;;;;;;;8.52;100.00;97691.63;5133037;27;20038;-75
2023/04/18 04:35:53;;;;;;;1999.90;999.90;;;;;;;8.52;100.00;97689.66;5133910;27;20157;-76
2023/04/18 04:38:21;;;;;;;1999.90;999.90;;;;;;;8.80;100.00;97698.13;5135667;27;20428;-75
2023/04/18 04:40:47;;;;;;;1999.90;999.90;;;;;;;8.99;100.00;97699.00;5133614;27;20479;-73
2023/04/18 04:43:14;;;;;;;1999.90;999.90;;;;;;;9.07;100.00;97695.59;5131645;27;20023;-76
2023/04/18 04:45:40;;;;;;;1999.90;999.90;;;;;;;9.22;100.00;97697.31;5113197;27;20121;-75
2023/04/18 04:48:06;;;;;;;1999.90;999.90;;;;;;;9.30;100.00;97683.84;5131860;27;20115;-76
2023/04/18 04:50:41;;;;;;;1999.90;999.90;;;;;;;9.33;100.00;97688.72;5112767;27;20106;-76
2023/04/18 04:53:10;;;;;;;1999.90;999.90;;;;;;;9.35;100.00;97691.13;5131538;27;20019;-75
2023/04/18 04:55:37;;;;;;;1999.90;999.90;;;;;;;9.40;100.00;97691.06;5112592;27;20073;-75
2023/04/18 04:58:02;;;;;;;1999.90;999.90;;;;;;;9.50;100.00;97697.19;5131139;27;20016;-76
2023/04/18 05:00:28;;;;;;;1999.90;999.90;;;;;;;9.40;100.00;97704.72;5131063;27;20023;-75
2023/04/18 05:02:54;;;;;;;1999.90;999.90;;;;;;;9.36;100.00;97707.25;5131425;27;20055;-76
2023/04/18 05:05:20;;;;;;;1999.90;999.90;;;;;;;9.24;100.00;97711.50;5132073;27;20099;-76
2023/04/18 05:07:45;;;;;;;1999.90;999.90;;;;;;;9.17;100.00;97679.09;5134666;27;20483;-76
2023/04/18 05:10:10;;;;;;;1999.90;999.90;;;;;;;9.41;100.00;97709.88;5134778;27;20047;-78
2023/04/18 05:12:36;;;;;;;1999.90;999.90;;;;;;;9.41;100.00;97704.44;5113911;27;20542;-77
2023/04/18 05:15:02;;;;;;;1999.90;999.90;;;;;;;9.56;100.00;97712.41;5131965;27;20044;-77
2023/04/18 05:17:27;;;;;;;1999.90;999.90;;;;;;;9.69;100.00;97725.31;5133377;27;20030;-75
2023/04/18 05:19:55;;;;;;;1999.90;999.90;;;;;;;9.72;100.00;97717.63;5132046;27;20023;-77
2023/04/18 05:22:21;;;;;;;1999.90;999.90;;;;;;;9.82;100.00;97717.50;5131837;28;20023;-76
2023/04/18 05:24:46;;;;;;;1999.90;999.90;;;;;;;9.82;100.00;97723.78;5130891;28;20401;-76
2023/04/18 05:27:13;;;;;;;1999.90;999.90;;;;;;;9.79;100.00;97701.69;5132449;27;20054;-79
2023/04/18 05:29:38;;;;;;;1999.90;999.90;;;;;;;9.95;100.00;97714.03;5134376;28;20023;-76
2023/04/18 05:32:05;;;;;;;1999.90;999.90;;;;;;;10.13;100.00;97721.38;5130578;28;20156;-74
2023/04/18 05:34:30;;;;;;;1999.90;999.90;;;;;;;10.19;100.00;97729.22;5130439;28;20104;-74
2023/04/18 05:36:56;;;;;;;1999.90;999.90;;;;;;;10.17;100.00;97716.97;5130952;28;20539;-75
2023/04/18 05:39:21;;;;;;;1999.90;999.90;;;;;;;10.28;100.00;97726.63;5142042;27;20015;-75
2023/04/18 05:41:48;;;;;;;1999.90;999.90;;;;;;;10.35;100.00;97735.25;5134461;27;20114;-77
2023/04/18 05:44:14;;;;;;;1999.90;999.90;;;;;;;10.40;100.00;97735.16;5135035;28;20027;-75
2023/04/18 05:46:40;;;;;;;1999.90;999.90;;;;;;;10.35;100.00;97720.78;5134534;27;20027;-81
2023/04/18 05:49:05;;;;;;;1999.90;999.90;;;;;;;10.35;100.00;97734.44;5132243;28;20023;-76
2023/04/18 05:51:31;;;;;;;1999.90;999.90;;;;;;;10.38;100.00;97742.03;5131306;28;20426;-75
2023/04/18 05:53:57;;;;;;;1999.90;999.90;;;;;;;10.52;100.00;97727.31;5129730;27;20487;-76
2023/04/18 05:56:22;;;;;;;1999.90;999.90;;;;;;;10.64;100.00;97741.31;5129099;27;20073;-75
2023/04/18 05:58:50;;;;;;;1999.90;999.90;;;;;;;10.56;100.00;97741.16;5128983;28;20020;-75
2023/04/18 06:01:17;;;;;;;1999.90;999.90;;;;;;;10.52;100.00;97737.44;5132536;27;20039;-75
2023/04/18 06:03:43;;;;;;;1999.90;999.90;;;;;;;10.52;100.00;97741.00;5134925;27;20035;-75
2023/04/18 06:06:08;;;;;;;1999.90;999.90;;;;;;;10.55;100.00;97755.97;5135013;27;20042;-75
2023/04/18 06:08:34;;;;;;;1999.90;999.90;;;;;;;10.70;100.00;97742.84;5137507;27;20022;-78
2023/04/18 06:10:59;;;;;;;1999.90;999.90;;;;;;;10.81;100.00;97750.88;5120613;27;20025;-75
2023/04/18 06:13:25;;;;;;;1999.90;999.90;;;;;;;10.91;100.00;97742.44;5138602;27;20494;-76
2023/04/18 06:15:50;;;;;;;1999.90;999.90;;;;;;;10.98;100.00;97756.56;5135838;27;20031;-76
2023/04/18 06:18:15;;;;;;;1999.90;999.90;;;;;;;11.11;99.70;97755.75;5135131;27;20114;-76
2023/04/18 06:20:42;;;;;;;1999.90;999.90;;;;;;;11.23;100.00;97754.13;5116386;27;20113;-74
2023/04/18 06:23:08;;;;;;;1999.90;999.90;;;;;;;11.37;98.33;97758.81;5134660;27;20026;-74
2023/04/18 06:25:33;;;;;;;1999.90;999.90;;;;;;;11.43;98.52;97761.13;5134599;27;20023;-76
2023/04/18 06:27:59;;;;;;;1999.90;999.90;;;;;;;11.36;98.10;97760.72;5134774;27;20387;-76
2023/04/18 06:30:24;;;;;;;1999.90;999.90;;;;;;;11.20;99.60;97748.47;5116447;27;20126;-75
2023/04/18 06:32:50;;;;;;;1999.90;999.90;;;;;;;11.27;100.00;97765.31;5134794;27;20015;-76
2023/04/18 06:35:15;;;;;;;1999.90;999.90;;;;;;;11.34;99.16;97771.16;5134777;27;20391;-74
2023/04/18 06:37:43;;;;;;;1999.90;999.90;;;;;;;11.29;100.00;97772.09;5135585;27;20394;-75
2023/04/18 06:40:12;;;;;;;1999.90;999.90;;;;;;;11.28;100.00;97777.84;5135019;27;20046;-76
2023/04/18 06:42:37;;;;;;;1999.90;999.90;;;;;;;11.44;99.47;97765.47;5135373;27;20395;-75
2023/04/18 06:45:04;;;;;;;1999.90;999.90;;;;;;;11.51;99.44;97774.09;5138632;27;20031;-76
2023/04/18 06:47:30;;;;;;;1999.90;999.90;;;;;;;11.59;98.95;97769.84;5142593;27;20019;-75
2023/04/18 06:49:55;;;;;;;1999.90;999.90;;;;;;;11.62;99.51;97770.03;5134966;27;20490;-76
2023/04/18 06:52:20;;;;;;;1999.90;999.90;;;;;;;11.78;98.63;97770.53;5134625;27;20034;-75
2023/04/18 06:54:46;;;;;;;1999.90;999.90;;;;;;;11.85;97.55;97781.09;5136262;27;20034;-77
2023/04/18 06:57:11;;;;;;;1999.90;999.90;;;;;;;11.86;97.65;97771.75;5118444;27;20498;-74
2023/04/18 06:59:37;;;;;;;1999.90;999.90;;;;;;;12.01;96.09;97774.16;5133928;27;20011;-73
2023/04/18 07:02:02;;;;;;;1999.90;999.90;;;;;;;12.29;94.40;97779.22;5134095;27;20019;-74
2023/04/18 07:04:27;;;;;;;1999.90;999.90;;;;;;;12.50;93.18;97779.53;5134436;27;20164;-75
2023/04/18 07:06:53;;;;;;;1999.90;999.90;;;;;;;12.52;92.14;97774.56;5133910;27;20463;-75
2023/04/18 07:09:19;;;;;;;1999.90;999.90;;;;;;;12.88;89.56;97771.72;5134185;27;20133;-74
2023/04/18 07:11:44;;;;;;;1999.90;999.90;;;;;;;13.12;88.20;97774.16;5114873;27;20368;-77
2023/04/18 07:14:10;;;;;;;1999.90;999.90;;;;;;;13.30;85.84;97781.31;5133928;27;20376;-74
2023/04/18 07:16:36;;;;;;;1999.90;999.90;;;;;;;13.59;84.73;97783.53;5133964;27;20665;-75
2023/04/18 07:19:02;;;;;;;1999.90;999.90;;;;;;;13.70;83.92;97771.91;5133676;27;20034;-75
2023/04/18 07:21:28;;;;;;;1999.90;999.90;;;;;;;13.84;82.56;97772.59;5134013;27;20023;-75
2023/04/18 07:23:53;;;;;;;1999.90;999.90;;;;;;;14.35;79.82;97776.53;5133754;27;20588;-74
2023/04/18 07:26:19;;;;;;;1999.90;999.90;;;;;;;14.19;79.12;97781.69;5133713;27;20019;-75
2023/04/18 07:28:44;;;;;;;1999.90;999.90;;;;;;;14.34;78.35;97780.44;5133398;27;20091;-75
2023/04/18 07:31:10;;;;;;;1999.90;999.90;;;;;;;14.82;75.77;97780.22;5133192;27;20023;-76
2023/04/18 07:33:36;;;;;;;1999.90;999.90;;;;;;;15.11;74.31;97782.25;5133625;27;20039;-74
2023/04/18 07:36:01;;;;;;;1999.90;999.90;;;;;;;15.28;73.25;97783.03;5133454;27;20027;-76
2023/04/18 07:38:27;;;;;;;1999.90;999.90;;;;;;;15.86;70.40;97793.31;5133571;27;20540;-75
2023/04/18 07:40:59;;;;;;;1999.90;999.90;;;;;;;16.28;67.57;97790.59;5133306;27;20048;-76
2023/04/18 07:43:25;;;;;;;1999.90;999.90;;;;;;;16.74;64.55;97784.88;5126503;27;20051;-74
2023/04/18 07:45:52;;;;;;;1999.90;999.90;;;;;;;17.49;63.41;97791.84;5133113;27;20143;-75
2023/04/18 07:48:17;;;;;;;1999.90;999.90;;;;;;;17.72;62.48;97792.25;5149014;27;20019;-76
2023/04/18 07:50:42;;;;;;;1999.90;999.90;;;;;;;18.35;58.31;97790.69;5132996;27;20027;-75
2023/04/18 07:53:08;;;;;;;1999.90;999.90;;;;;;;18.55;56.64;97798.03;5114327;27;20023;-75
2023/04/18 07:55:34;;;;;;;1999.90;999.90;;;;;;;18.74;54.50;97805.69;5132940;27;20111;-77
2023/04/18 07:58:00;;;;;;;1999.90;999.90;;;;;;;18.69;52.55;97801.22;5133094;27;20058;-74
2023/04/18 08:00:25;;;;;;;1999.90;999.90;;;;;;;19.13;52.55;97795.72;5133015;27;20055;-75
2023/04/18 08:02:51;;;;;;;1999.90;999.90;;;;;;;21.11;48.61;97801.22;5133040;27;20060;-75
2023/04/18 08:05:18;;;;;;;1999.90;999.90;;;;;;;24.82;40.63;97808.69;5132944;27;20055;-76
2023/04/18 08:07:43;;;;;;;1999.90;999.90;;;;;;;24.69;38.20;97812.97;5132827;27;20027;-76
2023/04/18 08:10:09;;;;;;;1999.90;999.90;;;;;;;23.51;38.78;97809.66;5114398;27;20503;-76
2023/04/18 08:12:35;;;;;;;1999.90;999.90;;;;;;;23.75;38.82;97814.66;5132471;27;20023;-77
2023/04/18 08:15:01;;;;;;;1999.90;999.90;;;;;;;25.47;35.49;97819.72;5133288;27;20027;-75
2023/04/18 08:17:26;;;;;;;1999.90;999.90;;;;;;;26.68;32.39;97822.59;5132708;27;20430;-78
2023/04/18 08:19:51;;;;;;;1999.90;999.90;;;;;;;27.78;30.56;97828.56;5132552;27;20027;-74
2023/04/18 08:22:17;;;;;;;1999.90;999.90;;;;;;;27.84;30.06;97829.72;5134974;27;20035;-77
2023/04/18 08:24:42;;;;;;;1999.90;999.90;;;;;;;26.39;31.79;97831.06;5115554;27;20080;-75
2023/04/18 08:27:07;;;;;;;1999.90;999.90;;;;;;;25.77;32.40;97822.22;5132346;27;20076;-75
2023/04/18 08:29:33;;;;;;;1999.90;999.90;;;;;;;24.53;34.27;97820.88;5132494;27;20118;-75
2023/04/18 08:31:58;;;;;;;1999.90;999.90;;;;;;;23.80;35.59;97816.31;5132575;27;20116;-75
2023/04/18 08:34:23;;;;;;;1999.90;999.90;;;;;;;23.13;36.74;97816.38;5132119;27;20478;-74
2023/04/18 08:36:50;;;;;;;1999.90;999.90;;;;;;;26.32;31.81;97836.66;5132225;27;20451;-75
2023/04/18 08:39:15;;;;;;;1999.90;999.90;;;;;;;24.77;32.21;97839.03;5132383;27;20023;-74
2023/04/18 08:41:42;;;;;;;1999.90;999.90;;;;;;;23.66;33.52;97838.50;5132257;27;20022;-76
2023/04/18 08:44:08;;;;;;;1999.90;999.90;;;;;;;19.56;40.80;97803.22;5132058;27;20027;-75
2023/04/18 08:46:37;;;;;;;1999.90;999.90;;;;;;;18.75;43.49;97807.31;5132391;27;20432;-76
2023/04/18 08:49:05;;;;;;;1999.90;999.90;;;;;;;18.98;43.51;97816.66;5132747;27;20394;-74
2023/04/18 08:51:33;;;;;;;1999.90;999.90;;;;;;;18.31;45.70;97811.09;5114517;27;20092;-75
2023/04/18 08:54:03;;;;;;;1999.90;999.90;;;;;;;18.59;45.09;97806.44;5138781;27;20048;-77
2023/04/18 08:56:29;;;;;;;1999.90;999.90;;;;;;;17.62;47.37;97799.03;5136896;27;20387;-74
2023/04/18 08:58:55;;;;;;;1999.90;999.90;;;;;;;17.51;48.08;97806.13;5132057;27;20475;-76
2023/04/18 09:01:21;;;;;;;1999.90;999.90;;;;;;;17.09;49.60;97799.97;5132359;27;20034;-75
2023/04/18 09:03:47;;;;;;;1999.90;999.90;;;;;;;17.29;49.51;97805.78;5113127;27;20708;-75
2023/04/18 09:06:17;;;;;;;1999.90;999.90;;;;;;;16.93;50.68;97809.22;5131718;27;20034;-75
2023/04/18 09:08:55;;;;;;;1999.90;999.90;;;;;;;16.86;51.03;97804.25;5131779;27;20026;-75
2023/04/18 09:11:24;;;;;;;1999.90;999.90;;;;;;;16.97;50.60;97810.16;5131956;27;20053;-75
2023/04/18 09:13:50;;;;;;;1999.90;999.90;;;;;;;16.68;51.41;97807.50;5131649;27;20058;-75
2023/04/18 09:16:19;;;;;;;1999.90;999.90;;;;;;;16.89;50.96;97811.03;5131389;27;20030;-76
2023/04/18 09:19:17;;;;;;;1999.90;999.90;;;;;;;16.87;51.31;97811.41;5131792;27;20479;-76
2023/04/18 09:21:47;;;;;;;1999.90;999.90;;;;;;;16.72;52.12;97827.78;5125675;27;20115;-77
2023/04/18 09:24:19;;;;;;;1999.90;999.90;;;;;;;16.56;49.79;97822.06;5113244;28;20064;-78
2023/04/18 09:26:45;;;;;;;1999.90;999.90;;;;;;;16.49;50.73;97824.53;5131457;27;20023;-79
2023/04/18 09:29:11;;;;;;;1999.90;999.90;;;;;;;16.36;49.59;97811.78;5131399;28;20547;-75
2023/04/18 09:32:00;;;;;;;1999.90;999.90;;;;;;;16.47;49.39;97826.84;5131599;28;20042;-76
2023/04/18 09:34:29;;;;;;;1999.90;999.90;;;;;;;16.51;49.38;97825.00;5112960;27;20023;-75
2023/04/18 09:37:20;;;;;;;1999.90;999.90;;;;;;;16.69;49.49;97822.94;5135947;27;20506;-75
2023/04/18 09:39:46;;;;;;;1999.90;999.90;;;;;;;16.54;49.17;97822.41;5114962;27;20099;-75
2023/04/18 09:42:12;;;;;;;1999.90;999.90;;;;;;;16.56;48.31;97822.91;5136552;27;20475;-76
2023/04/18 09:44:57;;;;;;;1999.90;999.90;;;;;;;16.62;48.41;97820.72;5137002;27;20038;-76
2023/04/18 09:47:23;;;;;;;1999.90;999.90;;;;;;;16.57;49.41;97818.19;5137091;27;20031;-77
2023/04/18 09:49:48;;;;;;;1999.90;999.90;;;;;;;16.83;48.48;97810.47;5122410;27;20030;-81
2023/04/18 09:52:14;;;;;;;1999.90;999.90;;;;;;;16.97;48.53;97810.97;5137037;27;20024;-84
2023/04/18 09:54:40;;;;;;;1999.90;999.90;;;;;;;17.22;48.43;97811.03;5117997;27;20399;-78
2023/04/18 09:57:09;;;;;;;1999.90;999.90;;;;;;;17.46;47.22;97817.44;5136017;27;20011;-77
2023/04/18 09:59:47;;;;;;;1999.90;999.90;;;;;;;17.87;46.24;97815.63;5135383;27;20031;-79
2023/04/18 10:02:18;;;;;;;1999.90;999.90;;;;;;;17.77;46.36;97819.66;5135260;27;20049;-75
2023/04/18 10:04:45;;;;;;;1999.90;999.90;;;;;;;17.26;46.40;97812.75;5135244;27;20027;-76
2023/04/18 10:07:11;;;;;;;1999.90;999.90;;;;;;;16.88;48.24;97806.69;5135296;27;20023;-77
2023/04/18 10:09:39;;;;;;;1999.90;999.90;;;;;;;17.04;48.36;97800.16;5135609;27;20403;-78
2023/04/18 10:12:04;;;;;;;1999.90;999.90;;;;;;;16.88;47.81;97823.25;5117157;27;20035;-75
2023/04/18 10:14:32;;;;;;;1999.90;999.90;;;;;;;17.06;47.85;97808.94;5134959;27;20099;-76
2023/04/18 10:16:58;;;;;;;1999.90;999.90;;;;;;;16.92;49.22;97802.88;5116700;27;20041;-74
2023/04/18 10:19:28;;;;;;;1999.90;999.90;;;;;;;16.68;50.34;97830.41;5135416;27;20043;-76
2023/04/18 10:22:00;;;;;;;1999.90;999.90;;;;;;;16.49;51.04;97824.53;5137820;27;20110;-76
2023/04/18 10:24:44;;;;;;;1999.90;999.90;;;;;;;16.50;51.27;97823.41;5137695;27;20035;-75
2023/04/18 10:27:10;;;;;;;1999.90;999.90;;;;;;;16.30;51.63;97821.44;5138367;27;20031;-79
2023/04/18 10:30:10;;;;;;;1999.90;999.90;;;;;;;16.51;51.49;97825.00;5138226;27;20034;-82
2023/04/18 10:32:35;;;;;;;1999.90;999.90;;;;;;;17.16;49.77;97804.13;5104727;27;20047;-78
2023/04/18 10:35:01;;;;;;;1999.90;999.90;;;;;;;17.85;48.17;97807.69;5136269;27;20034;-79
2023/04/18 10:37:26;;;;;;;1999.90;999.90;;;;;;;17.74;47.92;97820.38;5134778;27;20037;-79
2023/04/18 10:40:01;;;;;;;1999.90;999.90;;;;;;;17.59;48.90;97812.75;5134396;27;20027;-80
2023/04/18 10:42:51;;;;;;;1999.90;999.90;;;;;;;18.03;47.81;97817.38;5134787;27;20491;-80
2023/04/18 10:45:20;;;;;;;1999.90;999.90;;;;;;;18.17;47.65;97817.81;5134673;27;20027;-76
2023/04/18 10:47:45;;;;;;;1999.90;999.90;;;;;;;18.23;46.82;97812.06;5133648;27;20062;-76
2023/04/18 10:50:11;;;;;;;1999.90;999.90;;;;;;;17.50;48.30;97807.31;5135060;27;20058;-77
2023/04/18 10:52:37;;;;;;;1999.90;999.90;;;;;;;17.17;49.09;97812.06;5135210;27;20023;-78